Time;durP1;ratioP1;P1;durP2;ratioP2;P2;SDS_P1;SDS_P2;PMS_P1;PMS_P2;Temp;Humidity;BMP_temperature;BMP_pressure;BME280_temperature;BME280_humidity;BME280_pressure;Samples;Min_cycle;Max_cycle;Signal;HPM_P1;HPM_P2
2023/10/12 00:02:04;;;;;;;0.20;0.20;;;11.80;99.90;;;;;;5044056;28;20451;-82
2023/10/12 00:04:50;;;;;;;0.10;0.10;;;11.70;99.90;;;;;;5045973;28;20839;-81
2023/10/12 00:07:16;;;;;;;0.10;0.10;;;11.70;99.90;;;;;;5047414;28;20481;-81
2023/10/12 00:09:48;;;;;;;0.10;0.10;;;11.80;99.90;;;;;;5048504;28;20437;-80
2023/10/12 00:12:24;;;;;;;0.10;0.10;;;11.70;99.90;;;;;;5040606;28;20460;-81
2023/10/12 00:14:55;;;;;;;0.20;0.20;;;11.70;99.90;;;;;;5040821;28;20854;-81
2023/10/12 00:17:23;;;;;;;0.10;0.10;;;11.70;99.90;;;;;;5021961;28;20532;-81
2023/10/12 00:19:51;;;;;;;0.20;0.20;;;11.70;99.90;;;;;;5042639;28;20453;-81
2023/10/12 00:22:16;;;;;;;0.20;0.20;;;11.60;99.90;;;;;;5038735;28;20441;-81
2023/10/12 00:24:43;;;;;;;0.20;0.20;;;11.60;99.90;;;;;;5042428;28;20797;-83
2023/10/12 00:27:10;;;;;;;0.20;0.20;;;11.50;99.90;;;;;;5044248;28;20129;-82
2023/10/12 00:29:39;;;;;;;0.20;0.20;;;11.50;99.90;;;;;;5049093;28;20481;-81
2023/10/12 00:32:06;;;;;;;0.20;0.20;;;11.50;99.90;;;;;;5033906;28;20442;-81
2023/10/12 00:34:35;;;;;;;0.20;0.20;;;11.60;99.90;;;;;;5044802;28;20831;-81
2023/10/12 00:37:03;;;;;;;0.20;0.20;;;11.50;99.90;;;;;;5036966;28;20434;-81
2023/10/12 00:39:43;;;;;;;0.10;0.10;;;11.50;99.90;;;;;;5021074;28;20440;-81
2023/10/12 00:42:10;;;;;;;0.20;0.20;;;11.40;99.90;;;;;;5049261;28;20804;-79
2023/10/12 00:44:40;;;;;;;0.20;0.20;;;11.50;99.90;;;;;;5046014;28;20981;-81
2023/10/12 00:47:19;;;;;;;0.10;0.10;;;11.40;99.90;;;;;;5043148;28;20452;-81
2023/10/12 00:49:48;;;;;;;0.10;0.10;;;11.50;99.90;;;;;;5041625;28;20434;-81
2023/10/12 00:52:22;;;;;;;0.10;0.10;;;11.50;99.90;;;;;;5043436;28;20529;-81
2023/10/12 00:54:56;;;;;;;0.10;0.10;;;11.50;99.90;;;;;;5039976;28;20979;-81
2023/10/12 00:57:22;;;;;;;0.10;0.10;;;11.50;99.90;;;;;;5030813;28;20440;-81
2023/10/12 00:59:51;;;;;;;0.20;0.20;;;11.50;99.90;;;;;;5026361;28;20961;-81
2023/10/12 01:02:21;;;;;;;0.10;0.10;;;11.40;99.90;;;;;;5039550;28;20476;-81
2023/10/12 01:04:52;;;;;;;0.20;0.20;;;11.40;99.90;;;;;;5015584;28;20532;-81
2023/10/12 01:07:25;;;;;;;0.20;0.20;;;11.40;99.90;;;;;;5027778;28;20488;-80
2023/10/12 01:10:03;;;;;;;0.10;0.10;;;11.40;99.90;;;;;;5043469;28;20425;-81
2023/10/12 01:12:31;;;;;;;0.10;0.10;;;11.30;99.90;;;;;;5042696;28;20449;-81
2023/10/12 01:14:57;;;;;;;0.20;0.20;;;11.40;99.90;;;;;;5027112;28;21008;-81
2023/10/12 01:17:29;;;;;;;0.10;0.10;;;11.30;99.90;;;;;;5045896;28;20487;-80
2023/10/12 01:19:55;;;;;;;0.10;0.10;;;11.30;99.90;;;;;;5028895;28;20261;-81
2023/10/12 01:22:31;;;;;;;0.10;0.10;;;11.30;99.90;;;;;;5029502;28;20984;-80
2023/10/12 01:25:00;;;;;;;0.20;0.20;;;11.30;99.90;;;;;;5028105;28;20471;-81
2023/10/12 01:27:26;;;;;;;0.20;0.20;;;11.30;99.90;;;;;;5025077;28;20485;-80
2023/10/12 01:29:53;;;;;;;0.10;0.10;;;11.30;99.90;;;;;;5045462;28;20435;-80
2023/10/12 01:34:52;;;;;;;0.20;0.20;;;11.20;99.90;;;;;;5046845;28;20445;-81
2023/10/12 01:37:22;;;;;;;0.10;0.10;;;11.30;99.90;;;;;;5027117;28;20818;-80
2023/10/12 01:42:49;;;;;;;0.20;0.20;;;11.20;99.90;;;;;;5034740;28;20544;-81
2023/10/12 01:47:55;;;;;;;0.10;0.10;;;11.10;99.90;;;;;;5048105;28;20445;-80
2023/10/12 01:50:21;;;;;;;0.20;0.20;;;11.20;99.90;;;;;;5038395;28;20539;-81
2023/10/12 01:52:48;;;;;;;0.20;0.20;;;11.20;99.90;;;;;;5038821;28;20957;-81
2023/10/12 01:55:28;;;;;;;0.20;0.20;;;11.10;99.90;;;;;;5044261;28;20946;-81
2023/10/12 01:57:55;;;;;;;0.20;0.20;;;11.10;99.90;;;;;;5022670;28;21051;-81
2023/10/12 02:00:30;;;;;;;0.10;0.10;;;11.10;99.90;;;;;;5045279;28;20445;-80
2023/10/12 02:05:47;;;;;;;0.20;0.20;;;11.10;99.90;;;;;;5048307;28;20907;-81
2023/10/12 02:08:19;;;;;;;0.20;0.20;;;11.10;99.90;;;;;;5026254;28;20491;-81
2023/10/12 02:10:58;;;;;;;0.20;0.20;;;11.00;99.90;;;;;;5046772;28;20440;-80
2023/10/12 02:13:24;;;;;;;0.20;0.20;;;11.00;99.90;;;;;;5024893;28;20846;-81
2023/10/12 02:15:50;;;;;;;0.20;0.20;;;11.00;99.90;;;;;;5046191;28;20541;-81
2023/10/12 02:18:18;;;;;;;0.20;0.20;;;11.00;99.90;;;;;;5045244;28;20252;-81
2023/10/12 02:21:00;;;;;;;0.10;0.10;;;11.00;99.90;;;;;;5055801;28;20921;-81
2023/10/12 02:29:11;;;;;;;0.20;0.20;;;11.00;99.90;;;;;;5052112;28;20436;-80
2023/10/12 02:34:19;;;;;;;0.20;0.20;;;10.90;99.90;;;;;;5043515;28;20430;-80
2023/10/12 02:37:00;;;;;;;0.20;0.20;;;10.90;99.90;;;;;;5048806;28;20477;-81
2023/10/12 02:39:27;;;;;;;0.20;0.20;;;10.90;99.90;;;;;;5050119;28;20524;-80
2023/10/12 02:47:29;;;;;;;0.20;0.20;;;10.90;99.90;;;;;;5033626;28;20449;-81
2023/10/12 02:52:33;;;;;;;0.10;0.10;;;10.90;99.90;;;;;;5036400;28;20484;-81
2023/10/12 02:55:08;;;;;;;0.10;0.10;;;10.90;99.90;;;;;;5014222;28;20508;-81
2023/10/12 02:57:34;;;;;;;0.20;0.20;;;10.90;99.90;;;;;;5045816;28;20179;-81
2023/10/12 03:00:08;;;;;;;0.20;0.20;;;10.80;99.90;;;;;;5040780;28;20433;-81
2023/10/12 03:02:34;;;;;;;0.20;0.20;;;10.90;99.90;;;;;;5038641;28;20315;-80
2023/10/12 03:05:04;;;;;;;0.20;0.20;;;10.90;99.90;;;;;;5048291;28;20572;-80
2023/10/12 03:07:29;;;;;;;0.20;0.20;;;10.90;99.90;;;;;;5043233;28;20244;-80
2023/10/12 03:09:59;;;;;;;0.10;0.10;;;10.90;99.90;;;;;;5045392;28;20471;-80
2023/10/12 03:12:25;;;;;;;0.20;0.20;;;10.90;99.90;;;;;;5044824;28;20195;-80
2023/10/12 03:14:51;;;;;;;0.20;0.20;;;10.80;99.90;;;;;;5041955;28;20472;-80
2023/10/12 03:17:23;;;;;;;0.10;0.10;;;10.80;99.90;;;;;;5028407;28;20529;-80
2023/10/12 03:20:15;;;;;;;0.20;0.20;;;10.80;99.90;;;;;;5033297;28;20423;-80
2023/10/12 03:22:43;;;;;;;0.20;0.20;;;10.90;99.90;;;;;;5033175;28;20457;-80
2023/10/12 03:25:35;;;;;;;0.20;0.20;;;10.90;99.90;;;;;;5027962;28;20529;-80
2023/10/12 03:28:01;;;;;;;0.20;0.20;;;10.80;99.90;;;;;;5042882;28;21296;-80
2023/10/12 03:30:34;;;;;;;0.20;0.20;;;10.80;99.90;;;;;;5040415;28;20433;-80
2023/10/12 03:33:08;;;;;;;0.20;0.20;;;10.80;99.90;;;;;;5020411;28;20237;-80
2023/10/12 03:35:43;;;;;;;0.20;0.20;;;10.80;99.90;;;;;;5045240;28;21134;-80
2023/10/12 03:38:12;;;;;;;0.20;0.20;;;10.80;99.90;;;;;;5050216;28;20444;-80
2023/10/12 03:43:20;;;;;;;0.20;0.20;;;10.70;99.90;;;;;;5037152;28;20457;-80
2023/10/12 03:45:59;;;;;;;0.20;0.20;;;10.70;99.90;;;;;;5045097;28;20568;-80
2023/10/12 03:48:26;;;;;;;0.20;0.20;;;10.70;99.90;;;;;;5038012;28;21168;-80
2023/10/12 03:51:17;;;;;;;0.20;0.20;;;10.70;99.90;;;;;;5049526;28;20963;-80
2023/10/12 03:53:45;;;;;;;0.20;0.20;;;10.70;99.90;;;;;;5042882;28;20492;-80
2023/10/12 03:56:14;;;;;;;0.20;0.20;;;10.70;99.90;;;;;;5022958;28;20449;-81
2023/10/12 03:58:46;;;;;;;0.20;0.20;;;10.70;99.90;;;;;;5049317;28;20905;-81
2023/10/12 04:03:46;;;;;;;0.20;0.20;;;10.70;99.90;;;;;;5042894;28;20790;-80
2023/10/12 04:06:15;;;;;;;0.20;0.20;;;10.60;99.90;;;;;;5016474;28;20544;-80
2023/10/12 04:08:53;;;;;;;0.20;0.20;;;10.70;99.90;;;;;;5040914;28;20171;-80
2023/10/12 04:11:46;;;;;;;0.20;0.20;;;10.60;99.90;;;;;;5037604;28;20945;-80
2023/10/12 04:16:57;;;;;;;0.20;0.20;;;10.60;99.90;;;;;;5046997;28;20495;-80
2023/10/12 04:19:33;;;;;;;0.20;0.20;;;10.70;99.90;;;;;;5029082;28;20802;-80
2023/10/12 04:22:15;;;;;;;0.20;0.20;;;10.70;99.90;;;;;;5047845;28;20446;-80
2023/10/12 04:24:47;;;;;;;0.20;0.20;;;10.60;99.90;;;;;;5045845;28;20441;-80
2023/10/12 04:29:59;;;;;;;0.20;0.20;;;10.60;99.90;;;;;;5035690;28;20463;-80
2023/10/12 04:32:51;;;;;;;0.20;0.20;;;10.60;99.90;;;;;;5026482;28;20444;-79
2023/10/12 04:35:25;;;;;;;0.20;0.20;;;10.50;99.90;;;;;;5030921;28;20472;-80
2023/10/12 04:37:51;;;;;;;0.20;0.20;;;10.60;99.90;;;;;;5044955;28;20440;-80
2023/10/12 04:43:05;;;;;;;0.20;0.20;;;10.50;99.90;;;;;;5039904;28;20194;-79
2023/10/12 04:45:44;;;;;;;0.20;0.20;;;10.50;99.90;;;;;;5044151;28;20561;-80
2023/10/12 04:48:18;;;;;;;0.20;0.20;;;10.40;99.90;;;;;;5039162;28;20441;-80
2023/10/12 04:50:44;;;;;;;0.20;0.20;;;10.40;99.90;;;;;;5048876;28;20482;-80
2023/10/12 04:53:12;;;;;;;0.10;0.10;;;10.40;99.90;;;;;;5044943;28;20453;-80
2023/10/12 04:55:41;;;;;;;0.20;0.20;;;10.40;99.90;;;;;;5064572;28;20428;-80
2023/10/12 05:00:55;;;;;;;0.20;0.20;;;10.40;99.90;;;;;;5035731;28;20477;-80
2023/10/12 05:03:26;;;;;;;0.20;0.20;;;10.40;99.90;;;;;;5033237;28;20645;-79
2023/10/12 05:06:09;;;;;;;0.20;0.20;;;10.40;99.90;;;;;;5040596;28;20477;-79
2023/10/12 05:08:35;;;;;;;0.20;0.20;;;10.40;99.90;;;;;;5036870;28;20460;-79
2023/10/12 05:11:06;;;;;;;0.20;0.20;;;10.30;99.90;;;;;;5047610;28;20442;-79
2023/10/12 05:13:31;;;;;;;0.20;0.20;;;10.40;99.90;;;;;;5036276;28;20468;-79
2023/10/12 05:16:06;;;;;;;0.20;0.20;;;10.30;99.90;;;;;;5040204;28;21021;-79
2023/10/12 05:18:32;;;;;;;0.20;0.20;;;10.30;99.90;;;;;;5040395;28;20222;-79
2023/10/12 05:20:59;;;;;;;0.20;0.20;;;10.30;99.90;;;;;;5026114;28;20425;-79
2023/10/12 05:23:25;;;;;;;0.20;0.20;;;10.30;99.90;;;;;;5046353;28;20456;-79
2023/10/12 05:28:19;;;;;;;0.20;0.20;;;10.40;99.90;;;;;;5047360;28;20186;-79
2023/10/12 05:30:55;;;;;;;0.20;0.20;;;10.30;99.90;;;;;;5020654;28;20446;-79
2023/10/12 05:36:11;;;;;;;0.20;0.20;;;10.20;99.90;;;;;;5031239;28;20450;-79
2023/10/12 05:38:49;;;;;;;0.20;0.20;;;10.30;99.90;;;;;;5028423;28;21044;-79
2023/10/12 05:44:00;;;;;;;0.20;0.20;;;10.20;99.90;;;;;;5038486;28;21259;-79
2023/10/12 05:46:34;;;;;;;0.20;0.20;;;10.30;99.90;;;;;;5022619;28;20488;-80
2023/10/12 05:49:02;;;;;;;0.20;0.20;;;10.30;99.90;;;;;;5042797;28;20469;-79
2023/10/12 05:51:27;;;;;;;0.20;0.20;;;10.30;99.90;;;;;;5045496;28;20445;-79
2023/10/12 05:54:03;;;;;;;0.20;0.20;;;10.30;99.90;;;;;;5037213;28;20960;-79
2023/10/12 05:56:34;;;;;;;0.20;0.20;;;10.30;99.90;;;;;;5034779;28;20197;-79
2023/10/12 05:59:00;;;;;;;0.20;0.20;;;10.40;99.90;;;;;;5044020;28;20452;-79
2023/10/12 06:01:32;;;;;;;0.20;0.20;;;10.40;99.90;;;;;;5045701;28;20448;-79
2023/10/12 06:04:07;;;;;;;0.20;0.20;;;10.50;99.90;;;;;;5042126;28;20443;-79
2023/10/12 06:06:42;;;;;;;0.20;0.20;;;10.50;99.90;;;;;;5048135;28;20541;-79
2023/10/12 06:09:12;;;;;;;0.10;0.10;;;10.50;99.90;;;;;;5037552;28;21000;-79
2023/10/12 06:11:45;;;;;;;0.20;0.20;;;10.50;99.90;;;;;;5048539;28;20955;-79
2023/10/12 06:14:20;;;;;;;0.20;0.20;;;10.60;99.90;;;;;;5043844;28;22492;-79
2023/10/12 06:16:54;;;;;;;0.10;0.10;;;10.60;99.90;;;;;;5050447;28;21007;-79
2023/10/12 06:19:26;;;;;;;0.20;0.20;;;10.60;99.90;;;;;;5028647;28;20448;-79
2023/10/12 06:21:53;;;;;;;0.20;0.20;;;10.60;99.90;;;;;;5044450;28;20859;-79
2023/10/12 06:24:30;;;;;;;0.20;0.20;;;10.50;99.90;;;;;;5047786;28;20437;-79
2023/10/12 06:26:56;;;;;;;0.20;0.20;;;10.60;99.90;;;;;;5027957;28;20488;-79
2023/10/12 06:29:26;;;;;;;0.20;0.20;;;10.60;99.90;;;;;;5046011;28;20437;-79
2023/10/12 06:31:53;;;;;;;0.20;0.20;;;10.50;99.90;;;;;;5038458;28;20554;-79
2023/10/12 06:34:23;;;;;;;0.20;0.20;;;10.60;99.90;;;;;;5042347;28;20434;-79
2023/10/12 06:36:49;;;;;;;0.20;0.20;;;10.60;99.90;;;;;;5046666;28;20440;-79
2023/10/12 06:46:46;;;;;;;0.20;0.20;;;10.80;99.90;;;;;;5038599;28;20480;-79
2023/10/12 06:49:21;;;;;;;0.20;0.20;;;10.70;99.90;;;;;;5047068;28;20916;-79
2023/10/12 06:52:00;;;;;;;0.20;0.20;;;10.80;99.90;;;;;;5043283;28;20523;-79
2023/10/12 07:02:28;;;;;;;0.20;0.20;;;11.00;99.90;;;;;;5041304;28;20441;-78
2023/10/12 07:04:58;;;;;;;0.10;0.10;;;11.10;99.90;;;;;;5048457;28;20433;-80
2023/10/12 07:07:29;;;;;;;0.20;0.20;;;11.20;99.90;;;;;;5045161;28;20961;-82
2023/10/12 07:12:42;;;;;;;0.20;0.20;;;11.20;99.90;;;;;;5048216;28;20806;-82
2023/10/12 07:15:32;;;;;;;0.20;0.20;;;11.30;99.90;;;;;;5045394;28;20898;-82
2023/10/12 07:18:05;;;;;;;0.20;0.20;;;11.30;99.90;;;;;;5023998;28;21111;-81
2023/10/12 07:23:14;;;;;;;0.10;0.10;;;11.40;99.90;;;;;;5038471;28;20447;-80
2023/10/12 07:25:45;;;;;;;0.20;0.20;;;11.40;99.90;;;;;;5050383;28;20499;-79
2023/10/12 07:28:32;;;;;;;0.10;0.10;;;11.40;99.90;;;;;;5041950;28;21761;-79
2023/10/12 07:36:45;;;;;;;0.20;0.20;;;11.40;99.90;;;;;;5049706;28;20452;-77
2023/10/12 07:41:41;;;;;;;0.17;0.17;;;11.40;99.90;;;;;;5045513;28;20458;-79
2023/10/12 07:44:07;;;;;;;0.10;0.10;;;11.40;99.90;;;;;;5047079;28;20456;-79
2023/10/12 07:46:35;;;;;;;0.20;0.20;;;11.40;99.90;;;;;;5041865;28;20485;-79
2023/10/12 07:49:22;;;;;;;0.20;0.20;;;11.50;99.90;;;;;;5037112;28;20442;-79
2023/10/12 07:57:15;;;;;;;0.10;0.10;;;12.10;99.90;;;;;;5046414;28;20810;-79
2023/10/12 07:59:54;;;;;;;0.20;0.20;;;12.40;99.90;;;;;;5043768;28;20445;-79
2023/10/12 08:02:59;;;;;;;0.10;0.10;;;12.50;99.90;;;;;;5023235;28;20484;-79
2023/10/12 08:21:24;;;;;;;0.10;0.10;;;13.20;99.90;;;;;;5039316;28;20481;-78
2023/10/12 08:24:09;;;;;;;0.10;0.10;;;13.30;99.90;;;;;;5046264;28;20813;-78
2023/10/12 08:29:21;;;;;;;0.10;0.10;;;13.20;99.90;;;;;;5036761;28;20438;-78
2023/10/12 08:31:48;;;;;;;0.10;0.10;;;13.40;99.90;;;;;;5045310;28;20425;-78
2023/10/12 08:45:17;;;;;;;0.10;0.10;;;14.60;99.90;;;;;;5048119;28;20436;-80
2023/10/12 08:47:50;;;;;;;0.10;0.10;;;14.70;99.90;;;;;;5042580;28;20429;-80
2023/10/12 08:52:51;;;;;;;0.10;0.10;;;15.10;99.90;;;;;;5046046;28;20540;-80
2023/10/12 08:55:24;;;;;;;0.10;0.10;;;15.00;99.90;;;;;;5042923;28;20999;-80
2023/10/12 08:58:03;;;;;;;0.10;0.10;;;15.00;99.90;;;;;;5047925;28;20441;-80
2023/10/12 09:03:08;;;;;;;0.10;0.10;;;15.20;99.90;;;;;;5049876;28;20452;-79
2023/10/12 09:05:35;;;;;;;0.10;0.10;;;15.40;99.90;;;;;;5042300;28;20476;-79
2023/10/12 09:13:28;;;;;;;0.10;0.10;;;16.30;99.90;;;;;;5040385;28;20543;-80
2023/10/12 09:15:56;;;;;;;0.10;0.10;;;16.20;99.90;;;;;;5045686;28;20444;-80
2023/10/12 09:18:24;;;;;;;0.10;0.10;;;16.40;99.90;;;;;;5041389;28;20469;-80
2023/10/12 09:36:29;;;;;;;0.10;0.10;;;15.40;99.90;;;;;;5049584;28;20879;-80
2023/10/12 09:39:00;;;;;;;0.10;0.10;;;15.00;99.90;;;;;;5046611;28;20430;-80
2023/10/12 09:41:29;;;;;;;0.10;0.10;;;14.90;99.90;;;;;;5047269;28;20455;-80
2023/10/12 09:44:00;;;;;;;0.10;0.10;;;14.50;99.90;;;;;;5037167;28;20568;-78
2023/10/12 09:46:27;;;;;;;0.10;0.10;;;14.00;99.90;;;;;;5040140;28;20482;-78
2023/10/12 09:49:06;;;;;;;0.10;0.10;;;14.00;99.90;;;;;;5027011;28;20509;-78
2023/10/12 09:51:36;;;;;;;0.10;0.10;;;13.90;99.90;;;;;;5026742;28;20484;-78
2023/10/12 09:54:15;;;;;;;0.10;0.10;;;13.70;99.90;;;;;;5051194;28;20464;-78
2023/10/12 09:56:46;;;;;;;0.10;0.10;;;13.60;99.90;;;;;;5046926;28;20969;-78
2023/10/12 09:59:17;;;;;;;0.10;0.10;;;13.70;99.90;;;;;;5048946;28;20443;-78
2023/10/12 10:09:48;;;;;;;0.10;0.10;;;14.20;99.90;;;;;;5042681;28;20491;-78
2023/10/12 10:12:16;;;;;;;0.10;0.10;;;14.70;99.90;;;;;;5049262;28;20484;-79
2023/10/12 10:14:46;;;;;;;0.10;0.10;;;15.80;99.90;;;;;;5044323;28;20461;-79
2023/10/12 10:17:14;;;;;;;0.10;0.10;;;16.70;99.90;;;;;;5040673;28;20434;-78
2023/10/12 10:19:43;;;;;;;0.10;0.10;;;17.50;99.90;;;;;;5028800;28;20469;-79
2023/10/12 10:22:13;;;;;;;0.10;0.10;;;18.20;99.90;;;;;;5031648;28;20433;-79
2023/10/12 10:24:46;;;;;;;0.10;0.00;;;18.60;99.90;;;;;;5044075;28;20438;-79
2023/10/12 10:27:13;;;;;;;0.10;0.00;;;19.80;99.90;;;;;;5049256;28;20840;-79
2023/10/12 10:29:41;;;;;;;0.10;0.00;;;19.70;99.90;;;;;;5052102;28;20429;-79
2023/10/12 10:32:07;;;;;;;0.10;0.00;;;19.50;99.90;;;;;;5050670;28;20944;-79
2023/10/12 10:34:34;;;;;;;0.10;0.00;;;19.70;99.90;;;;;;5043414;28;20855;-79
2023/10/12 10:37:04;;;;;;;0.10;0.00;;;19.30;99.90;;;;;;5043993;28;22179;-79
2023/10/12 10:39:29;;;;;;;0.10;0.10;;;19.40;99.90;;;;;;5025309;28;21028;-85
2023/10/12 10:42:08;;;;;;;0.10;0.00;;;18.30;99.90;;;;;;5019918;28;20441;-79
2023/10/12 10:44:42;;;;;;;0.10;0.10;;;17.20;99.90;;;;;;5025927;28;20221;-79
2023/10/12 10:47:10;;;;;;;0.10;0.10;;;16.60;99.90;;;;;;5040059;28;20870;-81
2023/10/12 10:49:36;;;;;;;0.10;0.10;;;16.40;99.90;;;;;;5043810;28;20462;-81
2023/10/12 10:54:39;;;;;;;0.10;0.10;;;16.10;99.90;;;;;;5043078;28;20179;-81
2023/10/12 10:57:15;;;;;;;0.10;0.10;;;16.00;99.90;;;;;;5018921;28;20438;-80
2023/10/12 10:59:44;;;;;;;0.10;0.10;;;16.40;99.90;;;;;;5014354;28;20434;-81
2023/10/12 11:02:11;;;;;;;0.10;0.10;;;16.10;99.90;;;;;;5044049;28;20479;-82
2023/10/12 11:07:06;;;;;;;0.10;0.10;;;16.90;99.90;;;;;;5041464;28;20535;-80
2023/10/12 11:10:03;;;;;;;0.10;0.10;;;18.10;99.90;;;;;;5031138;28;20567;-81
2023/10/12 11:12:24;;;;;;;0.10;0.00;;;18.90;99.90;;;;;;5050206;28;20445;-81
2023/10/12 11:15:00;;;;;;;0.10;0.00;;;19.90;99.90;;;;;;5030866;28;20526;-81
2023/10/12 11:17:30;;;;;;;0.10;0.00;;;20.60;99.90;;;;;;5022370;28;20503;-81
2023/10/12 11:19:57;;;;;;;0.10;0.00;;;21.30;99.90;;;;;;5038586;28;20431;-81
2023/10/12 11:22:23;;;;;;;0.10;0.00;;;21.70;99.90;;;;;;5037606;28;20475;-81
2023/10/12 11:24:49;;;;;;;0.10;0.00;;;21.10;99.90;;;;;;5034152;28;20454;-81
2023/10/12 11:27:31;;;;;;;0.10;0.00;;;21.10;99.90;;;;;;5047791;28;20215;-79
2023/10/12 11:30:00;;;;;;;0.10;0.00;;;21.70;99.90;;;;;;5047410;28;20414;-80
2023/10/12 11:32:28;;;;;;;0.10;0.00;;;22.20;99.90;;;;;;5047624;28;20456;-79
2023/10/12 11:34:59;;;;;;;0.10;0.00;;;22.60;99.90;;;;;;5052872;28;20470;-79
2023/10/12 11:37:27;;;;;;;0.10;0.00;;;21.80;99.90;;;;;;5051966;28;20453;-78
2023/10/12 11:39:54;;;;;;;0.10;0.00;;;21.90;99.90;;;;;;5044791;28;20444;-78
2023/10/12 11:42:20;;;;;;;0.10;0.00;;;21.10;99.90;;;;;;5026518;28;20977;-77
2023/10/12 11:44:47;;;;;;;0.10;0.00;;;21.80;99.90;;;;;;5049949;28;20472;-78
2023/10/12 11:47:24;;;;;;;0.10;0.00;;;22.40;99.90;;;;;;5044035;28;20272;-78
2023/10/12 11:49:55;;;;;;;0.10;0.00;;;23.30;99.90;;;;;;5034912;28;20446;-79
2023/10/12 11:52:50;;;;;;;0.10;0.00;;;22.70;99.90;;;;;;5025753;28;20444;-78
2023/10/12 11:55:27;;;;;;;0.10;0.00;;;20.80;99.90;;;;;;5055065;28;20448;-78
2023/10/12 11:57:58;;;;;;;0.10;0.00;;;19.70;99.90;;;;;;5037816;28;20494;-79
2023/10/12 12:00:36;;;;;;;0.10;0.00;;;19.00;99.90;;;;;;5022263;28;20441;-80
2023/10/12 12:03:03;;;;;;;0.10;0.00;;;18.20;99.90;;;;;;5048320;28;20440;-81
2023/10/12 12:05:30;;;;;;;0.10;0.00;;;17.80;99.90;;;;;;5044794;28;20461;-81
2023/10/12 12:07:59;;;;;;;0.10;0.00;;;17.10;99.90;;;;;;5051163;28;21015;-81
2023/10/12 12:10:38;;;;;;;0.10;0.00;;;16.80;99.90;;;;;;5072768;28;20515;-80
2023/10/12 12:13:08;;;;;;;0.10;0.10;;;16.60;99.90;;;;;;5073087;28;20435;-80
2023/10/12 12:15:40;;;;;;;0.10;0.10;;;16.40;99.90;;;;;;5056191;28;20943;-81
2023/10/12 12:18:14;;;;;;;0.10;0.10;;;16.30;99.90;;;;;;5032146;28;20452;-81
2023/10/12 12:20:43;;;;;;;0.10;0.10;;;16.00;99.90;;;;;;5037731;28;20444;-80
2023/10/12 12:23:10;;;;;;;0.10;0.10;;;16.00;99.90;;;;;;5052181;28;20429;-81
2023/10/12 12:25:40;;;;;;;0.10;0.10;;;16.20;99.90;;;;;;5027531;28;20469;-81
2023/10/12 12:28:16;;;;;;;0.10;0.10;;;16.30;99.90;;;;;;5053174;28;20559;-78
2023/10/12 12:30:55;;;;;;;0.00;0.00;;;18.10;99.90;;;;;;5043434;28;20450;-79
2023/10/12 12:33:20;;;;;;;0.10;0.00;;;20.10;99.90;;;;;;5032985;28;20468;-78
2023/10/12 12:35:59;;;;;;;0.10;0.00;;;21.30;99.90;;;;;;5017305;28;20520;-80
2023/10/12 12:41:12;;;;;;;0.10;0.00;;;18.80;99.90;;;;;;5051500;28;20467;-81
2023/10/12 12:43:38;;;;;;;0.10;0.00;;;18.90;99.90;;;;;;5042203;28;20531;-81
2023/10/12 12:46:05;;;;;;;0.10;0.00;;;20.90;99.90;;;;;;5013613;28;21220;-80
2023/10/12 12:48:31;;;;;;;0.10;0.00;;;20.50;99.90;;;;;;5041088;28;20187;-81
2023/10/12 12:50:56;;;;;;;0.10;0.00;;;19.80;99.90;;;;;;5050049;28;20429;-82
2023/10/12 12:53:22;;;;;;;0.10;0.00;;;19.10;99.90;;;;;;5042158;28;20231;-81
2023/10/12 12:55:47;;;;;;;0.00;0.00;;;18.30;99.90;;;;;;5036495;28;20241;-80
2023/10/12 12:58:17;;;;;;;0.10;0.00;;;18.10;99.90;;;;;;5019833;28;20602;-81
2023/10/12 13:00:47;;;;;;;0.10;0.00;;;18.20;99.90;;;;;;5043562;28;20590;-81
2023/10/12 13:03:18;;;;;;;0.10;0.00;;;18.60;99.90;;;;;;5045829;28;20528;-81
2023/10/12 13:05:44;;;;;;;0.10;0.00;;;19.10;99.90;;;;;;5038146;28;20981;-81
2023/10/12 13:08:11;;;;;;;0.10;0.00;;;18.60;99.90;;;;;;5021428;28;20449;-81
2023/10/12 13:10:40;;;;;;;0.10;0.00;;;20.50;99.90;;;;;;5026588;28;20535;-80
2023/10/12 13:13:06;;;;;;;0.10;0.00;;;20.80;99.90;;;;;;5046748;28;20434;-79
2023/10/12 13:15:32;;;;;;;0.10;0.00;;;19.90;99.90;;;;;;5049106;28;20937;-81
2023/10/12 13:18:00;;;;;;;0.10;0.00;;;19.60;99.90;;;;;;5031621;28;20438;-79
2023/10/12 13:20:29;;;;;;;0.10;0.00;;;21.10;99.90;;;;;;5046999;28;20189;-79
2023/10/12 13:22:57;;;;;;;0.10;0.00;;;21.90;99.90;;;;;;5042660;28;20474;-79
2023/10/12 13:25:25;;;;;;;0.10;0.00;;;22.60;99.90;;;;;;5034086;28;20471;-79
2023/10/12 13:27:52;;;;;;;0.10;0.00;;;23.50;99.90;;;;;;5050322;28;20425;-80
2023/10/12 13:30:18;;;;;;;0.10;0.00;;;23.30;99.90;;;;;;5025163;28;20437;-80
2023/10/12 13:32:52;;;;;;;0.10;0.00;;;23.00;99.90;;;;;;5043645;28;20479;-79
2023/10/12 13:35:18;;;;;;;0.10;0.00;;;23.70;99.90;;;;;;5046647;28;20484;-79
2023/10/12 13:37:51;;;;;;;0.10;0.00;;;22.70;99.90;;;;;;5044932;28;20434;-79
2023/10/12 13:40:17;;;;;;;0.10;0.00;;;23.40;99.90;;;;;;5041015;28;20542;-80
2023/10/12 13:42:43;;;;;;;0.10;0.00;;;23.20;99.90;;;;;;5027302;28;20965;-79
2023/10/12 13:45:18;;;;;;;0.10;0.00;;;23.30;99.90;;;;;;5020412;28;20627;-80
2023/10/12 13:47:47;;;;;;;0.10;0.00;;;23.90;99.90;;;;;;5041658;28;20456;-80
2023/10/12 13:50:12;;;;;;;;;;;24.40;99.90;;;;;;5049924;28;20271;-79
2023/10/12 13:52:39;;;;;;;0.10;0.00;;;24.50;99.90;;;;;;5047705;28;20260;-79
2023/10/12 13:55:12;;;;;;;0.10;0.00;;;23.40;99.90;;;;;;5044825;28;20434;-80
2023/10/12 13:57:55;;;;;;;0.10;0.00;;;21.40;99.90;;;;;;5037044;28;20920;-79
2023/10/12 14:00:33;;;;;;;0.10;0.00;;;20.90;99.90;;;;;;5037050;28;20448;-80
2023/10/12 14:02:59;;;;;;;;;;;20.30;99.90;;;;;;5020768;28;20643;-80
2023/10/12 14:05:25;;;;;;;;;;;19.70;99.90;;;;;;5042555;28;19923;-81
2023/10/12 14:07:54;;;;;;;;;;;19.60;99.90;;;;;;5043891;28;19917;-81
2023/10/12 14:10:22;;;;;;;;;;;19.00;99.90;;;;;;5038423;28;19944;-81
2023/10/12 14:12:49;;;;;;;;;;;19.30;99.90;;;;;;5041241;28;20380;-81
2023/10/12 14:15:14;;;;;;;;;;;18.80;99.90;;;;;;5020006;28;19924;-80
2023/10/12 14:17:40;;;;;;;;;;;18.50;99.90;;;;;;5046635;28;20445;-81
2023/10/12 14:20:08;;;;;;;;;;;18.00;99.90;;;;;;5024412;28;19912;-81
2023/10/12 14:22:34;;;;;;;;;;;18.00;99.90;;;;;;5042852;28;19909;-81
2023/10/12 14:25:05;;;;;;;;;;;17.50;99.90;;;;;;5043999;28;19916;-80
2023/10/12 14:27:33;;;;;;;;;;;17.60;99.90;;;;;;5018531;28;19924;-82
2023/10/12 14:30:09;;;;;;;;;;;17.40;99.90;;;;;;5042243;28;19908;-81
2023/10/12 14:32:35;;;;;;;;;;;17.40;99.90;;;;;;5042593;28;19936;-80
2023/10/12 14:35:01;;;;;;;;;;;17.70;99.90;;;;;;5053024;28;19909;-81
2023/10/12 14:37:26;;;;;;;;;;;17.30;99.90;;;;;;5049321;28;19915;-79
2023/10/12 14:39:52;;;;;;;;;;;17.00;99.90;;;;;;5039047;28;19915;-80
2023/10/12 14:42:18;;;;;;;;;;;17.00;99.90;;;;;;5033479;28;19996;-80
2023/10/12 14:44:45;;;;;;;;;;;16.90;99.90;;;;;;5034085;28;19952;-79
2023/10/12 14:47:11;;;;;;;;;;;16.30;99.90;;;;;;5045184;28;19943;-79
2023/10/12 14:49:36;;;;;;;;;;;16.10;99.90;;;;;;5049751;28;20364;-79
2023/10/12 14:52:02;;;;;;;;;;;15.70;99.90;;;;;;5051989;28;19908;-78
2023/10/12 14:54:28;;;;;;;;;;;16.10;99.90;;;;;;5045381;28;19920;-79
2023/10/12 14:56:53;;;;;;;;;;;16.10;99.90;;;;;;5043133;28;19909;-78
2023/10/12 14:59:19;;;;;;;;;;;16.40;99.90;;;;;;5043558;28;19917;-79
2023/10/12 15:01:45;;;;;;;;;;;16.50;99.90;;;;;;5032973;28;20369;-79
2023/10/12 15:04:10;;;;;;;;;;;16.30;99.90;;;;;;5046287;28;19990;-81
2023/10/12 15:06:36;;;;;;;;;;;16.40;99.90;;;;;;5042115;28;19916;-80
2023/10/12 15:09:03;;;;;;;;;;;16.50;99.90;;;;;;5047474;28;19920;-80
2023/10/12 15:11:30;;;;;;;;;;;16.10;99.90;;;;;;5051762;28;19932;-81
2023/10/12 15:13:56;;;;;;;;;;;15.90;99.90;;;;;;5051831;28;19970;-81
2023/10/12 15:16:23;;;;;;;;;;;15.80;99.90;;;;;;5049004;28;19908;-81
2023/10/12 15:18:49;;;;;;;;;;;15.70;99.90;;;;;;5048589;28;20022;-81
2023/10/12 15:21:15;;;;;;;;;;;15.70;99.90;;;;;;5047870;28;20488;-81
2023/10/12 15:23:42;;;;;;;;;;;15.80;99.90;;;;;;5049524;28;19935;-81
2023/10/12 15:26:07;;;;;;;;;;;15.80;99.90;;;;;;5051739;28;19912;-79
2023/10/12 15:28:36;;;;;;;;;;;15.90;99.90;;;;;;5051478;28;19975;-79
2023/10/12 15:31:03;;;;;;;;;;;15.70;99.90;;;;;;5031902;28;19905;-79
2023/10/12 15:33:29;;;;;;;;;;;15.80;99.90;;;;;;5036034;28;19959;-79
2023/10/12 15:35:55;;;;;;;;;;;15.70;99.90;;;;;;5045390;28;19956;-80
2023/10/12 15:38:21;;;;;;;;;;;15.60;99.90;;;;;;5032796;28;20513;-80
2023/10/12 15:40:46;;;;;;;;;;;15.30;99.90;;;;;;5047018;28;19913;-80
2023/10/12 15:43:16;;;;;;;;;;;15.20;99.90;;;;;;5045541;28;20280;-79
2023/10/12 15:45:46;;;;;;;;;;;15.40;99.90;;;;;;5047652;28;19963;-81
2023/10/12 15:48:13;;;;;;;;;;;15.10;99.90;;;;;;5026299;28;19909;-80
2023/10/12 15:50:39;;;;;;;;;;;15.00;99.90;;;;;;5016230;28;20357;-80
2023/10/12 15:53:06;;;;;;;;;;;14.80;99.90;;;;;;5017359;28;19913;-80
2023/10/12 15:55:34;;;;;;;;;;;14.90;99.90;;;;;;5045096;28;19923;-80